M I D A S
Marine Information and Data Acquisition System
Tripno 2103 of the Zeeleeuw from 2011-05-19 07:49:11 to 2011-05-19 13:01:09
Back to CruiseResearch ActivitiesStationsMapUnderway DataData graphs

EquipmentUnitsComment
TimeDGPSUTC
LatitudeDGPSDM.mWGS84
LongitudeDGPSDM.mWGS84
HeadingGyrodeg 
SOGDGPSknotsSpeed over ground
COGDGPSdegCourse over ground
DepthEcho soundermeters200 kHz
Missing or incorrect values are displayed as -999
Navigation data collected by the RV Zeeleeuw from 2011-05-19 07:50:55 to 2011-05-19 13:13:59
Time Latitude Longitude Heading SOG COG Depth
2011-05-19 07:52:00 51°13.633 2°55.999 112.6 3.8 292 -999
2011-05-19 07:53:00 51°13.656 2°55.912 117.3 3.7 296 -999
2011-05-19 07:54:00 51°13.681 2°55.834 118.2 3 297 8.1
2011-05-19 07:55:01 51°13.711 2°55.763 133.6 3.8 311 -999
2011-05-19 07:56:00 51°13.767 2°55.686 146.7 5 325 -999
2011-05-19 07:57:01 51°13.846 2°55.627 168.7 5.3 345 -999
2011-05-19 07:58:00 51°13.923 2°55.623 193.1 4 9 -999
2011-05-19 07:58:59 51°13.96 2°55.641 219.4 0.5 359 9.8
2011-05-19 07:59:59 51°13.97 2°55.577 299.9 4.2 309 9.4
2011-05-19 08:00:59 51°14.047 2°55.497 331.4 6.6 330 9.4
2011-05-19 08:01:58 51°14.162 2°55.392 331.1 9 329 9.2
2011-05-19 08:02:57 51°14.296 2°55.261 329 10.3 327 9.1
2011-05-19 08:03:59 51°14.452 2°55.096 326.2 11.3 324 -999
2011-05-19 08:04:59 51°14.608 2°54.89 326.5 12.9 316 10.4
2011-05-19 08:05:58 51°14.677 2°54.571 275.9 13.6 264 9
2011-05-19 08:06:56 51°14.568 2°54.263 232.6 14.2 233 8.4
2011-05-19 08:07:57 51°14.42 2°53.957 237.9 14.4 238 8.2
2011-05-19 08:08:56 51°14.31 2°53.624 243.8 14.5 242 8.2
2011-05-19 08:09:56 51°14.157 2°53.327 224.9 14.7 226 8.4
2011-05-19 08:10:56 51°14.002 2°53.027 235.4 14.7 234 8.6
2011-05-19 08:11:57 51°13.857 2°52.706 237.5 14.7 237 8.7
2011-05-19 08:12:57 51°13.721 2°52.382 237.7 14.7 237 8.8
2011-05-19 08:13:57 51°13.58 2°52.062 232 14.7 232 9
2011-05-19 08:14:57 51°13.442 2°51.742 240.6 14.6 240 9.1
2011-05-19 08:15:56 51°13.317 2°51.416 235.3 14.7 234 9.2
2011-05-19 08:16:56 51°13.182 2°51.091 241.4 14.8 240 9.4
2011-05-19 08:17:55 51°13.064 2°50.752 238.1 14.9 237 9.5
2011-05-19 08:18:55 51°12.937 2°50.414 246.6 14.9 245 9.7
2011-05-19 08:19:56 51°12.829 2°50.053 241.8 14.9 240 9.8
2011-05-19 08:20:56 51°12.713 2°49.703 248 15 247 9.9
2011-05-19 08:21:56 51°12.609 2°49.339 242.3 15 241 10.3
2011-05-19 08:22:57 51°12.487 2°48.984 245 15 245 10.5
2011-05-19 08:23:57 51°12.383 2°48.625 244.4 14.9 242 10.7
2011-05-19 08:24:57 51°12.275 2°48.272 248.9 14.9 247 10.9
2011-05-19 08:25:57 51°12.182 2°47.907 249 14.8 246 11.3
2011-05-19 08:26:56 51°12.085 2°47.552 251.9 14.9 251 11.4
2011-05-19 08:27:56 51°12.016 2°47.171 258.1 15 256 11.5
2011-05-19 08:28:56 51°11.945 2°46.788 255.6 15.1 254 11.6
2011-05-19 08:29:56 51°11.892 2°46.399 261.4 15 258 11.7
2011-05-19 08:30:57 51°11.828 2°46.008 259.9 15 257 11.7
2011-05-19 08:31:56 51°11.788 2°45.63 263.3 14.6 260 11.7
2011-05-19 08:32:57 51°11.732 2°45.245 260.7 14.7 259 11.8
2011-05-19 08:33:56 51°11.701 2°44.875 266.6 14.1 262 11.7
2011-05-19 08:34:56 51°11.658 2°44.511 262 14 260 11.6
2011-05-19 08:35:57 51°11.629 2°44.139 267.7 13.8 263 11.3
2011-05-19 08:36:57 51°11.599 2°43.776 266.1 13.8 262 11
2011-05-19 08:37:56 51°11.556 2°43.424 262 13.8 259 10.7
2011-05-19 08:38:56 51°11.525 2°43.062 267.4 13.8 264 10.3
2011-05-19 08:39:56 51°11.483 2°42.704 260 13.8 257 10.2
2011-05-19 08:40:56 51°11.435 2°42.344 259.4 13.9 255 10.5
2011-05-19 08:41:57 51°11.345 2°41.998 245.7 14 244 10.7
2011-05-19 08:42:57 51°11.243 2°41.663 245.4 14.1 242 11.1
2011-05-19 08:43:56 51°11.121 2°41.35 239.6 14.2 240 11.5
2011-05-19 08:44:57 51°11.01 2°41.01 244.7 14.2 242 11.9
2011-05-19 08:45:56 51°10.89 2°40.694 239.1 14.2 239 12.3
2011-05-19 08:46:57 51°10.787 2°40.345 248.3 14.4 246 12.8
2011-05-19 08:47:55 51°10.685 2°40.011 242.4 14.5 242 13.4
2011-05-19 08:48:56 51°10.577 2°39.657 247.9 14.6 246 13.9
2011-05-19 08:49:56 51°10.474 2°39.306 243.3 14.7 242 14.5
2011-05-19 08:50:56 51°10.367 2°38.958 247.7 14.7 246 15
2011-05-19 08:51:56 51°10.26 2°38.611 242 14.6 241 15.2
2011-05-19 08:52:56 51°10.15 2°38.265 246.6 14.7 246 15.4
2011-05-19 08:53:57 51°10.046 2°37.905 244.5 14.7 243 15.6
2011-05-19 08:54:57 51°9.934 2°37.558 245.4 14.8 245 16
2011-05-19 08:55:57 51°9.835 2°37.2 246.9 14.8 245 16
2011-05-19 08:56:56 51°9.723 2°36.862 243.5 14.1 243 15.4
2011-05-19 08:57:57 51°9.649 2°36.611 249.8 7.7 247 16.1
2011-05-19 08:58:57 51°9.594 2°36.48 218 5 223 16
2011-05-19 08:59:57 51°9.542 2°36.422 185.9 2.5 218 15.9
2011-05-19 09:00:56 51°9.53 2°36.38 175.5 1.6 255 6.8
2011-05-19 09:01:56 51°9.522 2°36.34 180.4 1.6 251 16
2011-05-19 09:02:56 51°9.512 2°36.301 181.9 1.6 246 16
2011-05-19 09:03:56 51°9.501 2°36.263 182.5 1.6 243 15.9
2011-05-19 09:04:56 51°9.489 2°36.223 182.1 1.6 242 16
2011-05-19 09:05:56 51°9.477 2°36.184 180.7 1.6 240 16
2011-05-19 09:06:56 51°9.462 2°36.147 181 1.7 239 16
2011-05-19 09:07:56 51°9.448 2°36.108 181 1.7 238 16
2011-05-19 09:08:56 51°9.433 2°36.07 181.2 1.7 238 16
2011-05-19 09:09:56 51°9.418 2°36.031 182.3 1.7 237 16
2011-05-19 09:10:56 51°9.402 2°35.993 183.8 1.8 237 16.1
2011-05-19 09:11:56 51°9.386 2°35.952 185.2 1.8 238 16
2011-05-19 09:12:56 51°9.37 2°35.912 185.8 1.8 237 16
2011-05-19 09:13:56 51°9.353 2°35.873 185.7 1.8 239 16.2
2011-05-19 09:14:56 51°9.337 2°35.834 184.2 1.8 237 16.1
2011-05-19 09:15:56 51°9.321 2°35.795 182.4 1.8 237 16.1
2011-05-19 09:16:56 51°9.305 2°35.753 179.3 1.8 238 16.1
2011-05-19 09:17:56 51°9.288 2°35.717 176.7 1.8 237 16.1
2011-05-19 09:18:56 51°9.272 2°35.679 172.9 1.7 236 16.2
2011-05-19 09:19:56 51°9.256 2°35.64 168.9 1.7 236 16.2
2011-05-19 09:20:56 51°9.239 2°35.603 167.1 1.7 234 16.2
2011-05-19 09:21:56 51°9.224 2°35.564 165.6 1.8 239 16.2
2011-05-19 09:22:56 51°9.208 2°35.525 164 1.8 237 16.1
2011-05-19 09:23:56 51°9.192 2°35.485 161.9 1.8 238 16.2
2011-05-19 09:24:56 51°9.177 2°35.445 159 1.8 238 16.1
2011-05-19 09:25:56 51°9.162 2°35.405 156.4 1.8 239 16.2
2011-05-19 09:26:56 51°9.147 2°35.365 154.5 1.8 236 16.2
2011-05-19 09:27:56 51°9.131 2°35.325 152.4 1.8 238 16.2
2011-05-19 09:28:56 51°9.116 2°35.285 150.6 1.8 239 16.2
2011-05-19 09:29:56 51°9.101 2°35.245 149 1.8 237 16.3
2011-05-19 09:30:56 51°9.075 2°35.237 108.6 2.1 136 16.1
2011-05-19 09:31:56 51°9.097 2°35.286 37.6 4 27 16.1
2011-05-19 09:32:56 51°9.192 2°35.362 39.6 7.2 34 16.3
2011-05-19 09:33:56 51°9.256 2°35.472 59.1 4.7 57 15.8
2011-05-19 09:34:56 51°9.276 2°35.564 75.8 3 84 16.5
2011-05-19 09:35:56 51°9.283 2°35.635 68.2 2.5 74 16.4
2011-05-19 09:36:56 51°9.296 2°35.697 68.9 2.5 73 16.5
2011-05-19 09:37:56 51°9.298 2°35.766 89.5 3 105 16.2
2011-05-19 09:38:56 51°9.266 2°35.839 118.4 3.9 140 16.1
2011-05-19 09:39:57 51°9.199 2°35.886 146.9 4.6 169 15.9
2011-05-19 09:40:56 51°9.116 2°35.882 174.3 5.4 190 15.8
2011-05-19 09:41:57 51°9.036 2°35.828 199.4 5.1 212 15.4
2011-05-19 09:42:56 51°8.974 2°35.742 221.6 5 227 14.9
2011-05-19 09:43:55 51°8.928 2°35.636 240.1 5 240 14.8
2011-05-19 09:44:56 51°8.889 2°35.515 247.3 5 245 14.9
2011-05-19 09:45:56 51°8.859 2°35.393 258.8 4.9 252 15.1
2011-05-19 09:46:56 51°8.842 2°35.269 272.1 4.7 260 15.6
2011-05-19 09:47:55 51°8.828 2°35.149 269.1 4.7 259 16
2011-05-19 09:48:55 51°8.812 2°35.028 266.8 4.7 257 16.2
2011-05-19 09:49:56 51°8.793 2°34.904 265.7 4.8 256 16.4
2011-05-19 09:50:56 51°8.774 2°34.781 263.9 4.8 254 16.5
2011-05-19 09:51:57 51°8.751 2°34.656 261.2 4.8 253 16.7
2011-05-19 09:52:56 51°8.728 2°34.536 260.9 4.8 252 16.9
2011-05-19 09:53:55 51°8.705 2°34.418 260.3 4.8 252 16.8
2011-05-19 09:54:56 51°8.681 2°34.297 261.6 4.7 252 16.9
2011-05-19 09:55:57 51°8.658 2°34.176 262.7 4.7 254 16.7
2011-05-19 09:56:55 51°8.639 2°34.062 268.5 4.6 257 16.8
2011-05-19 09:57:56 51°8.625 2°33.942 273.9 4.5 261 17.2
2011-05-19 09:58:55 51°8.612 2°33.828 266.7 4.4 256 16.6
2011-05-19 09:59:55 51°8.587 2°33.717 253.1 4.5 247 16.3
2011-05-19 10:00:55 51°8.556 2°33.608 251.7 4.5 246 16.6
2011-05-19 10:01:55 51°8.528 2°33.498 257.1 4.4 249 15.9
2011-05-19 10:02:56 51°8.505 2°33.385 260.7 4.5 253 15.9
2011-05-19 10:03:55 51°8.486 2°33.275 270.6 4.3 260 16
2011-05-19 10:04:56 51°8.481 2°33.165 286.1 3.9 269 16.2
2011-05-19 10:05:55 51°8.488 2°33.07 301.8 3.6 281 16.5
2011-05-19 10:06:55 51°8.502 2°32.974 305.4 3.8 285 17.1
2011-05-19 10:07:56 51°8.521 2°32.877 309.3 3.8 289 18.2
2011-05-19 10:08:55 51°8.543 2°32.785 315.7 4 294 19.1
2011-05-19 10:09:55 51°8.565 2°32.701 320 2.9 291 19.5
2011-05-19 10:10:55 51°8.579 2°32.645 330.3 1.9 288 19.5
2011-05-19 10:11:55 51°8.586 2°32.596 323.6 1.9 277 19.2
2011-05-19 10:12:55 51°8.587 2°32.548 318 1.9 272 19
2011-05-19 10:13:55 51°8.607 2°32.499 2.3 2.3 336 18.9
2011-05-19 10:14:56 51°8.663 2°32.535 45.6 6.1 40 18.9
2011-05-19 10:15:56 51°8.78 2°32.685 41.1 11.2 37 19
2011-05-19 10:16:56 51°8.913 2°32.908 54.6 11.7 53 18.8
2011-05-19 10:17:56 51°9.032 2°33.153 51.5 11.6 48 18.4
2011-05-19 10:18:55 51°9.166 2°33.369 50.2 11.6 48 17.6
2011-05-19 10:19:56 51°9.295 2°33.61 51.8 11.9 49 17.3
2011-05-19 10:20:55 51°9.431 2°33.833 48 12 47 16.5
2011-05-19 10:21:56 51°9.562 2°34.078 52.6 12 50 15
2011-05-19 10:22:56 51°9.7 2°34.309 48.4 12 47 13
2011-05-19 10:23:56 51°9.827 2°34.555 52.3 12 51 11.8
2011-05-19 10:24:55 51°9.959 2°34.785 47.3 12 46 11.3
2011-05-19 10:25:56 51°10.087 2°35.035 55.1 12 54 11.6
2011-05-19 10:26:56 51°10.212 2°35.282 49.2 12 48 11.6
2011-05-19 10:27:55 51°10.333 2°35.527 55.5 12 55 11.7
2011-05-19 10:28:55 51°10.457 2°35.772 48.8 11.9 48 11.1
2011-05-19 10:29:55 51°10.576 2°36.023 55.1 11.9 54 11.4
2011-05-19 10:30:55 51°10.7 2°36.267 49.5 11.8 50 11.4
2011-05-19 10:31:56 51°10.817 2°36.526 57.7 11.9 59 12.2
2011-05-19 10:32:56 51°10.924 2°36.791 54.5 11.9 53 12.3
2011-05-19 10:33:56 51°11.04 2°37.046 55.8 11.9 57 12.5
2011-05-19 10:34:55 51°11.145 2°37.308 56.2 11.9 55 12.8
2011-05-19 10:35:56 51°11.262 2°37.569 56.4 12 57 12.4
2011-05-19 10:36:55 51°11.368 2°37.832 56.6 12 57 12.4
2011-05-19 10:37:56 51°11.489 2°38.089 52.2 11.9 53 11.6
2011-05-19 10:38:56 51°11.599 2°38.352 58.3 11.9 59 11
2011-05-19 10:39:55 51°11.704 2°38.613 54.8 12 54 11.1
2011-05-19 10:40:55 51°11.814 2°38.877 59.8 12 61 11.3
2011-05-19 10:41:56 51°11.921 2°39.151 54.5 11.9 54 11
2011-05-19 10:42:55 51°12.026 2°39.412 59.8 11.9 61 11.3
2011-05-19 10:43:56 51°12.133 2°39.682 54.5 11.8 54 11.3
2011-05-19 10:44:55 51°12.238 2°39.942 59.6 11.9 61 11.9
2011-05-19 10:45:56 51°12.347 2°40.21 56.3 11.9 57 11.8
2011-05-19 10:46:56 51°12.448 2°40.483 58.1 11.9 58 12
2011-05-19 10:47:55 51°12.558 2°40.737 56.7 11.9 58 12.2
2011-05-19 10:48:55 51°12.658 2°41.009 57.3 11.8 57 12.2
2011-05-19 10:49:56 51°12.771 2°41.274 57.1 11.9 58 12.3
2011-05-19 10:50:55 51°12.869 2°41.542 58 11.8 58 12.1
2011-05-19 10:51:55 51°12.98 2°41.803 56.7 11.9 58 12.3
2011-05-19 10:52:56 51°13.082 2°42.081 58.2 11.9 57 12
2011-05-19 10:53:56 51°13.194 2°42.345 57.7 12 59 12.2
2011-05-19 10:54:56 51°13.295 2°42.619 56.6 12 56 12.1
2011-05-19 10:55:56 51°13.41 2°42.877 55.8 12 56 12
2011-05-19 10:56:55 51°13.506 2°43.151 64.4 12.1 66 11.6
2011-05-19 10:57:56 51°13.585 2°43.453 66.1 12.1 67 10.8
2011-05-19 10:58:56 51°13.67 2°43.745 67.2 12.2 69 10.3
2011-05-19 10:59:56 51°13.717 2°44.061 78 12.4 78 9.9
2011-05-19 11:00:56 51°13.78 2°44.377 70.6 12.5 71 11
2011-05-19 11:01:55 51°13.827 2°44.696 77 12.5 77 12.4
2011-05-19 11:02:56 51°13.888 2°45.016 73.2 12.4 74 12.9
2011-05-19 11:03:56 51°13.936 2°45.337 76.4 12.4 77 12.8
2011-05-19 11:04:56 51°13.996 2°45.65 70.9 12.3 71 12.5
2011-05-19 11:05:56 51°14.049 2°45.966 77 12.3 77 11.8
2011-05-19 11:06:55 51°14.067 2°46.287 90.1 12.5 92 10.8
2011-05-19 11:07:56 51°14.029 2°46.618 106.8 12.6 108 10.1
2011-05-19 11:08:56 51°13.938 2°46.927 119 13 122 11.5
2011-05-19 11:09:56 51°13.839 2°47.11 145 5.9 148 12.4
2011-05-19 11:10:56 51°13.793 2°47.174 111.1 1.8 127 12.8
2011-05-19 11:11:55 51°13.782 2°47.179 82.9 0.6 204 12.9
2011-05-19 11:12:56 51°13.773 2°47.172 82.2 0.6 201 13
2011-05-19 11:13:56 51°13.764 2°47.167 87.2 0.6 198 13
2011-05-19 11:14:55 51°13.755 2°47.163 96.7 0.6 192 13.1
2011-05-19 11:15:56 51°13.744 2°47.16 107.2 0.7 188 13
2011-05-19 11:16:56 51°13.733 2°47.158 116.1 0.7 183 13
2011-05-19 11:17:56 51°13.721 2°47.156 123.1 0.8 186 13
2011-05-19 11:18:56 51°13.707 2°47.154 127.8 0.8 188 12.4
2011-05-19 11:19:56 51°13.694 2°47.151 130.4 0.7 187 13
2011-05-19 11:20:56 51°13.682 2°47.148 130.6 0.7 186 13.1
2011-05-19 11:21:56 51°13.669 2°47.146 130.9 0.7 190 13
2011-05-19 11:22:55 51°13.658 2°47.144 131 0.7 185 13.2
2011-05-19 11:23:56 51°13.648 2°47.14 131.3 0.6 194 13.2
2011-05-19 11:24:56 51°13.637 2°47.136 131.4 0.6 195 13.2
2011-05-19 11:25:55 51°13.627 2°47.133 129.5 0.6 197 13.2
2011-05-19 11:26:56 51°13.618 2°47.129 127.9 0.6 196 13.2
2011-05-19 11:27:56 51°13.608 2°47.125 126.1 0.5 194 13.1
2011-05-19 11:28:56 51°13.6 2°47.122 124.1 0.5 197 13.3
2011-05-19 11:29:55 51°13.592 2°47.119 121.3 0.5 195 13.3
2011-05-19 11:30:56 51°13.584 2°47.116 118.6 0.5 194 13.3
2011-05-19 11:31:56 51°13.577 2°47.113 115.7 0.5 194 13.3
2011-05-19 11:32:56 51°13.569 2°47.11 114.5 0.5 193 13.4
2011-05-19 11:33:56 51°13.562 2°47.108 116.4 0.5 192 13.3
2011-05-19 11:34:55 51°13.554 2°47.109 123.7 1.2 139 13.1
2011-05-19 11:35:56 51°13.505 2°47.18 135.4 6.1 135 13.3
2011-05-19 11:36:56 51°13.423 2°47.331 136.4 8.4 137 13.1
2011-05-19 11:37:56 51°13.282 2°47.37 193.1 9.5 197 11.9
2011-05-19 11:38:56 51°13.207 2°47.179 273.7 9 278 11.9
2011-05-19 11:39:55 51°13.286 2°47.056 349.2 4.8 353 13.1
2011-05-19 11:40:55 51°13.37 2°47.091 22.2 7.2 25 13.1
2011-05-19 11:41:55 51°13.455 2°47.215 60.3 5.7 64 13.4
2011-05-19 11:42:55 51°13.477 2°47.332 79.1 4 81 13.4
2011-05-19 11:43:55 51°13.485 2°47.433 81.1 3.7 82 13.5
2011-05-19 11:44:56 51°13.498 2°47.532 73.4 3.6 76 13.3
2011-05-19 11:45:55 51°13.514 2°47.621 72.2 3.5 75 13.3
2011-05-19 11:46:56 51°13.527 2°47.713 74.7 3.4 77 13.1
2011-05-19 11:47:55 51°13.54 2°47.804 71.9 3.6 75 13.2
2011-05-19 11:48:55 51°13.56 2°47.895 64.7 3.7 69 13.3
2011-05-19 11:49:55 51°13.585 2°47.986 61.5 3.7 65 13.2
2011-05-19 11:50:56 51°13.611 2°48.078 64.6 3.8 67 13.3
2011-05-19 11:51:56 51°13.634 2°48.175 68.9 3.9 72 13.3
2011-05-19 11:52:55 51°13.655 2°48.27 63.9 3.9 68 13.1
2011-05-19 11:53:56 51°13.685 2°48.36 53.5 3.8 58 13.1
2011-05-19 11:54:55 51°13.721 2°48.442 46.7 3.9 52 13.2
2011-05-19 11:55:55 51°13.761 2°48.523 46.4 3.9 52 13.4
2011-05-19 11:56:56 51°13.8 2°48.607 47.1 3.9 52 13.4
2011-05-19 11:57:56 51°13.841 2°48.688 46.9 3.9 51 13.5
2011-05-19 11:58:55 51°13.881 2°48.766 44.9 3.8 48 13.4
2011-05-19 11:59:56 51°13.925 2°48.841 41.2 3.8 45 13.6
2011-05-19 12:00:56 51°13.971 2°48.912 39.5 3.9 44 13.7
2011-05-19 12:01:56 51°14.017 2°48.984 40.6 3.9 45 13.8
2011-05-19 12:02:55 51°14.062 2°49.056 41.9 3.9 46 13.8
2011-05-19 12:03:56 51°14.108 2°49.134 43.9 4 48 14
2011-05-19 12:04:56 51°14.152 2°49.212 44.9 4 49 14.1
2011-05-19 12:05:56 51°14.196 2°49.291 44.5 4 49 14.3
2011-05-19 12:06:56 51°14.237 2°49.375 49 4 53 14.3
2011-05-19 12:07:55 51°14.276 2°49.461 49.1 4.1 54 14.3
2011-05-19 12:08:56 51°14.316 2°49.548 48.2 3.9 54 14.5
2011-05-19 12:09:55 51°14.354 2°49.628 47.3 3.7 53 14.5
2011-05-19 12:10:55 51°14.392 2°49.708 46.2 3.8 53 14.7
2011-05-19 12:11:55 51°14.431 2°49.784 42.9 3.7 48 14.6
2011-05-19 12:12:55 51°14.472 2°49.855 44.7 3.6 49 14.7
2011-05-19 12:13:55 51°14.507 2°49.929 53.5 3.4 56 14.7
2011-05-19 12:14:56 51°14.537 2°50.006 57.3 3.3 60 14.9
2011-05-19 12:15:55 51°14.563 2°50.079 60.3 3.2 61 14.9
2011-05-19 12:16:56 51°14.589 2°50.155 63.2 3.2 63 14.8
2011-05-19 12:17:56 51°14.61 2°50.237 78.3 3.5 74 14.8
2011-05-19 12:18:56 51°14.618 2°50.329 101.3 3.5 89 14.8
2011-05-19 12:19:56 51°14.606 2°50.469 104.2 7.7 96 14.5
2011-05-19 12:20:55 51°14.616 2°50.622 79.5 4.7 74 14.4
2011-05-19 12:21:56 51°14.641 2°50.722 64.3 3.5 63 14.4
2011-05-19 12:22:55 51°14.666 2°50.793 57.5 2.8 60 14.5
2011-05-19 12:23:56 51°14.688 2°50.853 55.2 2.4 60 14.5
2011-05-19 12:24:56 51°14.711 2°50.961 91.1 6.6 88 14.4
2011-05-19 12:25:56 51°14.685 2°51.094 137 3.9 115 14.3
2011-05-19 12:26:55 51°14.662 2°51.169 144.5 2.9 116 14
2011-05-19 12:27:55 51°14.618 2°51.197 216 3.4 210 13.8
2011-05-19 12:28:56 51°14.589 2°51.138 248.4 1.9 253 13.8
2011-05-19 12:29:56 51°14.591 2°51.102 267.1 1.1 299 13.8
2011-05-19 12:30:55 51°14.604 2°51.084 280.4 1 336 14
2011-05-19 12:31:56 51°14.622 2°51.078 288.3 1.1 1 14
2011-05-19 12:32:56 51°14.64 2°51.083 292.2 1.1 15 14.1
2011-05-19 12:33:56 51°14.657 2°51.094 294.9 1.1 27 14.2
2011-05-19 12:34:55 51°14.674 2°51.111 300.3 1.2 34 14.2
2011-05-19 12:35:56 51°14.69 2°51.13 307.2 1.2 38 14.4
2011-05-19 12:36:56 51°14.707 2°51.152 314.2 1.3 40 14.5
2011-05-19 12:37:56 51°14.723 2°51.175 320.6 1.3 45 14.5
2011-05-19 12:38:56 51°14.74 2°51.205 331.5 1.6 52 14.5
2011-05-19 12:39:55 51°14.755 2°51.236 333.2 1.4 53 14.6
2011-05-19 12:40:56 51°14.768 2°51.267 327 1.4 56 14.5
2011-05-19 12:41:56 51°14.78 2°51.298 317.1 1.4 58 14.5
2011-05-19 12:42:55 51°14.792 2°51.328 307.8 1.4 57 14.6
2011-05-19 12:43:56 51°14.805 2°51.361 301.2 1.5 59 14.7
2011-05-19 12:44:56 51°14.818 2°51.395 296.2 1.4 62 14.6
2011-05-19 12:45:56 51°14.829 2°51.428 290.7 1.4 60 14.7
2011-05-19 12:46:56 51°14.839 2°51.461 286.2 1.4 63 14.6
2011-05-19 12:47:55 51°14.85 2°51.49 287.3 1.1 39 14.6
2011-05-19 12:48:56 51°14.886 2°51.492 337.6 3.7 5 14.8
2011-05-19 12:49:56 51°14.955 2°51.574 61.8 6.7 63 14.8
2011-05-19 12:50:55 51°14.972 2°51.814 94.4 12 87 14.6
2011-05-19 12:51:55 51°14.979 2°52.164 97.3 13.6 92 14.1
2011-05-19 12:52:55 51°14.962 2°52.523 101.8 13.6 95 13.7
2011-05-19 12:53:55 51°14.947 2°52.885 98.5 14 91 13.3
2011-05-19 12:54:55 51°14.941 2°53.262 100 14.2 95 13.5
2011-05-19 12:55:56 51°14.915 2°53.643 102.3 14.2 97 13.2
2011-05-19 12:56:55 51°14.872 2°54.001 110.4 13.8 105 12.8
2011-05-19 12:57:55 51°14.806 2°54.35 115.8 13.9 108 13.5
2011-05-19 12:58:55 51°14.713 2°54.681 126.8 13.5 118 14.5
2011-05-19 12:59:56 51°14.577 2°54.965 145.3 13 136 15.5
2011-05-19 13:00:56 51°14.405 2°55.157 149.2 12.7 147 13.5
2011-05-19 13:01:57 51°14.238 2°55.31 148.6 10.4 148 13.7
2011-05-19 13:02:56 51°14.096 2°55.432 154.7 9.4 154 13.7
2011-05-19 13:03:56 51°13.971 2°55.523 156.4 7.2 155 14.1
2011-05-19 13:04:56 51°13.878 2°55.591 157.3 5.3 156 14
2011-05-19 13:05:56 51°13.807 2°55.647 149.6 4.3 149 14.5
2011-05-19 13:06:56 51°13.757 2°55.713 135.9 3.5 135 13.8
2011-05-19 13:07:56 51°13.725 2°55.77 127.3 2.4 129 14.9
2011-05-19 13:08:55 51°13.707 2°55.812 123.1 1.7 124 14.2
2011-05-19 13:09:56 51°13.679 2°55.879 123.9 4 123 12.1
2011-05-19 13:10:55 51°13.65 2°55.954 121.2 3 121 12.9
2011-05-19 13:11:55 51°13.635 2°56.014 103.2 0.9 102 10.7
2011-05-19 13:12:59 51°13.636 2°56.016 108.6 0.1 112 -999